KJAX/JAX METAR and TAF weather

Enter ICAO airport designator
Station Type Date Time Source
KJAX METAR 2020/07/11 23:15 UTC NOAA

KJAX 112315Z 09013G18KT 10SM TS FEW020 SCT050CB BKN200 31/24 A2983 RMK AO2 LTG DSNT S AND SW TSB15 OCNL LTGICCG VC NE TS VC NE MOV SE T03060244 $


Station Type Date Time Source
KJAX Decoded METAR 2020/07/11 23:15 UTC NOAA

JACKSONVILLE INTERNATIONAL, FL, United States (KJAX) 30-30N 81-42W 7M
Jul 11, 2020 - 07:15 PM EDT / 2020.07.11 2315 UTC
Wind: from the E (090 degrees) at 15 MPH (13 KT) gusting to 21 MPH (18 KT):0
Visibility: 10 mile(s):0
Sky conditions: mostly cloudy
Weather: thunder; Cumulonimbus clouds, lightning observed
Temperature: 87.1 F (30.6 C)
Heat index: 97.3 F (36.3 C):1
Dew Point: 75.9 F (24.4 C)
Relative Humidity: 69%
Pressure (altimeter): 29.83 in. Hg (1010 hPa)
ob: KJAX 112315Z 09013G18KT 10SM TS FEW020 SCT050CB BKN200 31/24 A2983 RMK AO2 LTG DSNT S AND SW TSB15 OCNL LTGICCG VC NE TS VC NE MOV SE T03060244
cycle: 23

Station Type Date Time Source
KJAX TAF 2020/07/11 18:22 UTC NOAA

TAF KJAX 111720Z 1118/1218 27005KT P6SM VCTS FEW040CB SCT250
FM112000 15008KT P6SM VCTS SCT050CB SCT080 BKN250
FM120300 18006KT P6SM SCT040 SCT080 BKN250
FM120600 00000KT P6SM FEW250

Example: see airport list